Time;durP1;ratioP1;P1;durP2;ratioP2;P2;SDS_P1;SDS_P2;PMS_P1;PMS_P2;Temp;Humidity;BMP_temperature;BMP_pressure;BME280_temperature;BME280_humidity;BME280_pressure;Samples;Min_cycle;Max_cycle;Signal;HPM_P1;HPM_P2
2022/08/09 00:00:59;;;;;;;4.57;4.17;;;16.80;99.90;;;;;;5055755;28;20212;-58
2022/08/09 00:03:28;;;;;;;4.03;3.73;;;16.70;99.90;;;;;;5065117;28;20188;-58
2022/08/09 00:06:17;;;;;;;4.40;4.10;;;16.70;99.90;;;;;;5051970;28;20235;-58
2022/08/09 00:08:51;;;;;;;5.30;3.80;;;16.70;99.90;;;;;;5062643;28;20680;-57
2022/08/09 00:11:24;;;;;;;4.37;3.70;;;16.70;99.90;;;;;;5053036;28;20209;-58
2022/08/09 00:14:15;;;;;;;4.10;3.80;;;16.70;99.90;;;;;;5061788;28;20199;-59
2022/08/09 00:16:55;;;;;;;3.77;3.47;;;16.70;99.90;;;;;;5065326;28;20691;-58
2022/08/09 00:19:24;;;;;;;4.43;3.60;;;16.60;99.90;;;;;;5063512;28;20192;-58
2022/08/09 00:21:55;;;;;;;3.60;3.43;;;16.60;99.90;;;;;;5071827;28;20237;-58
2022/08/09 00:24:25;;;;;;;3.73;3.37;;;16.60;99.90;;;;;;5057151;28;20250;-58
2022/08/09 00:26:55;;;;;;;3.73;3.40;;;16.60;99.90;;;;;;5055017;28;20224;-58
2022/08/09 00:29:26;;;;;;;4.50;4.00;;;16.60;99.90;;;;;;5063548;28;20196;-58
2022/08/09 00:32:17;;;;;;;4.93;3.90;;;16.60;99.90;;;;;;5051106;28;20205;-57
2022/08/09 00:34:55;;;;;;;3.90;3.60;;;16.50;99.90;;;;;;5064740;28;20208;-58
2022/08/09 00:37:25;;;;;;;6.10;3.97;;;16.50;99.90;;;;;;5061616;28;20214;-58
2022/08/09 00:39:57;;;;;;;7.73;3.80;;;16.50;99.90;;;;;;5061140;28;20250;-58
2022/08/09 00:42:44;;;;;;;4.20;3.90;;;16.50;99.90;;;;;;5058681;28;20210;-58
2022/08/09 00:45:35;;;;;;;4.20;3.47;;;16.50;99.90;;;;;;5060177;28;20943;-58
2022/08/09 00:48:05;;;;;;;6.13;4.27;;;16.40;99.90;;;;;;5077162;28;20366;-58
2022/08/09 00:50:33;;;;;;;3.60;3.40;;;16.40;99.90;;;;;;5053014;28;20638;-58
2022/08/09 00:53:06;;;;;;;4.03;3.73;;;16.40;99.90;;;;;;5058418;28;20227;-58
2022/08/09 00:55:39;;;;;;;4.07;3.77;;;16.40;99.90;;;;;;5066160;28;20220;-58
2022/08/09 00:58:29;;;;;;;4.00;3.70;;;16.40;99.90;;;;;;5054981;28;20997;-58
2022/08/09 01:01:00;;;;;;;4.87;3.90;;;16.40;99.90;;;;;;5053959;28;20211;-58
2022/08/09 01:03:40;;;;;;;4.20;3.90;;;16.30;99.90;;;;;;5059151;28;20731;-58
2022/08/09 01:06:20;;;;;;;4.87;4.47;;;16.30;99.90;;;;;;5066693;28;20208;-58
2022/08/09 01:09:03;;;;;;;4.83;3.90;;;16.30;99.90;;;;;;5059586;28;20211;-58
2022/08/09 01:11:51;;;;;;;4.17;3.97;;;16.20;99.90;;;;;;5062194;28;20196;-58
2022/08/09 01:14:29;;;;;;;9.43;4.27;;;16.20;99.90;;;;;;5065249;28;20354;-59
2022/08/09 01:17:06;;;;;;;5.13;4.63;;;16.20;99.90;;;;;;5061903;28;20205;-58
2022/08/09 01:19:43;;;;;;;4.47;4.10;;;16.10;99.90;;;;;;5052188;28;20267;-58
2022/08/09 01:23:03;;;;;;;7.77;4.70;;;16.10;99.90;;;;;;5060614;28;20184;-58
2022/08/09 01:25:57;;;;;;;5.00;4.60;;;16.00;99.90;;;;;;5051448;28;20227;-58
2022/08/09 01:28:28;;;;;;;4.93;4.63;;;16.00;99.90;;;;;;5064306;28;20193;-58
2022/08/09 01:31:00;;;;;;;5.23;4.70;;;16.00;99.90;;;;;;5059435;28;20190;-58
2022/08/09 01:33:39;;;;;;;4.93;4.63;;;16.00;99.90;;;;;;5060360;28;20250;-58
2022/08/09 01:36:12;;;;;;;6.60;4.83;;;15.90;99.90;;;;;;5058028;28;20299;-58
2022/08/09 01:38:47;;;;;;;5.77;5.20;;;15.90;99.90;;;;;;5062090;28;20202;-59
2022/08/09 01:41:19;;;;;;;5.17;4.67;;;15.90;99.90;;;;;;5064516;28;20196;-58
2022/08/09 01:43:57;;;;;;;5.40;4.90;;;15.90;99.90;;;;;;5055481;28;20199;-58
2022/08/09 01:46:29;;;;;;;7.33;4.83;;;15.80;99.90;;;;;;5087816;28;21128;-58
2022/08/09 01:49:01;;;;;;;5.73;4.90;;;15.80;99.90;;;;;;5087281;28;20204;-58
2022/08/09 01:51:42;;;;;;;7.93;4.63;;;15.80;99.90;;;;;;5077853;28;20200;-58
2022/08/09 01:54:25;;;;;;;5.23;4.47;;;15.80;99.90;;;;;;5075173;28;20274;-59
2022/08/09 01:56:59;;;;;;;6.57;5.20;;;15.80;99.90;;;;;;5056985;28;20211;-58
2022/08/09 01:59:33;;;;;;;5.40;4.90;;;15.70;99.90;;;;;;5051850;28;20210;-58
2022/08/09 02:02:20;;;;;;;5.90;5.10;;;15.70;99.90;;;;;;5063361;28;20200;-58
2022/08/09 02:04:50;;;;;;;5.50;5.10;;;15.70;99.90;;;;;;5058539;28;20204;-58
2022/08/09 02:07:23;;;;;;;5.87;5.20;;;15.70;99.90;;;;;;5068177;28;20203;-57
2022/08/09 02:10:17;;;;;;;5.90;5.33;;;15.70;99.90;;;;;;5063415;28;20602;-58
2022/08/09 02:13:00;;;;;;;6.80;4.73;;;15.70;99.90;;;;;;5055104;28;20218;-58
2022/08/09 02:15:33;;;;;;;6.73;5.80;;;15.70;99.90;;;;;;5055330;28;20204;-58
2022/08/09 02:18:21;;;;;;;6.03;5.43;;;15.60;99.90;;;;;;5054974;28;20213;-57
2022/08/09 02:20:55;;;;;;;5.73;5.13;;;15.60;99.90;;;;;;5060650;28;20236;-58
2022/08/09 02:23:29;;;;;;;5.53;5.03;;;15.60;99.90;;;;;;5090853;28;20198;-58
2022/08/09 02:26:10;;;;;;;6.10;5.50;;;15.60;99.90;;;;;;5062172;28;20192;-58
2022/08/09 02:28:57;;;;;;;6.60;6.00;;;15.50;99.90;;;;;;5079372;28;20217;-58
2022/08/09 02:31:35;;;;;;;6.53;5.90;;;15.50;99.90;;;;;;5053771;28;20197;-57
2022/08/09 02:34:12;;;;;;;11.43;5.80;;;15.50;99.90;;;;;;5097329;28;20219;-58
2022/08/09 02:37:05;;;;;;;7.60;5.60;;;15.50;99.90;;;;;;5069870;28;20288;-58
2022/08/09 02:39:39;;;;;;;9.13;6.57;;;15.40;99.90;;;;;;5064602;28;20803;-58
2022/08/09 02:42:15;;;;;;;9.03;6.40;;;15.40;99.90;;;;;;5055299;28;20196;-59
2022/08/09 02:44:48;;;;;;;8.13;6.07;;;15.40;99.90;;;;;;5055568;28;20419;-58
2022/08/09 02:47:21;;;;;;;6.73;6.17;;;15.40;99.90;;;;;;5057750;28;20229;-58
2022/08/09 02:49:56;;;;;;;7.43;5.60;;;15.30;99.90;;;;;;5059257;28;20195;-58
2022/08/09 02:52:36;;;;;;;8.37;6.80;;;15.30;99.90;;;;;;5054320;28;20801;-58
2022/08/09 02:55:08;;;;;;;6.57;5.90;;;15.30;99.90;;;;;;5061236;28;20716;-58
2022/08/09 02:57:50;;;;;;;6.47;5.93;;;15.30;99.90;;;;;;5058090;28;20199;-58
2022/08/09 03:00:40;;;;;;;7.03;6.33;;;15.30;99.90;;;;;;5057608;28;20196;-58
2022/08/09 03:03:28;;;;;;;7.60;6.47;;;15.30;99.90;;;;;;5057877;28;20204;-58
2022/08/09 03:06:18;;;;;;;7.63;6.87;;;15.20;99.90;;;;;;5056055;28;20212;-58
2022/08/09 03:08:50;;;;;;;11.20;7.57;;;15.20;99.90;;;;;;5062483;28;20225;-58
2022/08/09 03:11:21;;;;;;;8.07;6.47;;;15.20;99.90;;;;;;5053718;28;20189;-58
2022/08/09 03:14:11;;;;;;;7.30;6.70;;;15.20;99.90;;;;;;5063376;28;20248;-57
2022/08/09 03:16:40;;;;;;;8.23;6.97;;;15.10;99.90;;;;;;5052953;28;20775;-58
2022/08/09 03:19:16;;;;;;;7.80;7.00;;;15.10;99.90;;;;;;5055300;28;20189;-58
2022/08/09 03:22:06;;;;;;;9.07;6.83;;;15.10;99.90;;;;;;5058353;28;20752;-59
2022/08/09 03:24:47;;;;;;;7.57;6.90;;;15.10;99.90;;;;;;5063116;28;20236;-59
2022/08/09 03:27:21;;;;;;;9.23;6.90;;;15.10;99.90;;;;;;5061820;28;20656;-58
2022/08/09 03:29:50;;;;;;;7.47;6.80;;;15.10;99.90;;;;;;5061017;28;20189;-58
2022/08/09 03:32:30;;;;;;;8.03;6.60;;;15.00;99.90;;;;;;5063119;28;20211;-58
2022/08/09 03:35:00;;;;;;;9.20;7.23;;;15.00;99.90;;;;;;5058442;28;20205;-59
2022/08/09 03:37:32;;;;;;;10.97;7.50;;;15.00;99.90;;;;;;5061669;28;20902;-58
2022/08/09 03:40:21;;;;;;;10.23;6.60;;;14.90;99.90;;;;;;5063978;28;20283;-57
2022/08/09 03:42:51;;;;;;;7.70;6.90;;;14.90;99.90;;;;;;5071045;28;20201;-58
2022/08/09 03:45:23;;;;;;;10.77;7.83;;;14.90;99.90;;;;;;5064252;28;20204;-58
2022/08/09 03:48:12;;;;;;;9.50;7.00;;;14.90;99.90;;;;;;5065850;28;20266;-58
2022/08/09 03:50:49;;;;;;;7.83;6.87;;;14.80;99.90;;;;;;5092071;28;20245;-58
2022/08/09 03:53:20;;;;;;;8.03;7.30;;;14.80;99.90;;;;;;5064208;28;20196;-58
2022/08/09 03:55:59;;;;;;;7.80;7.10;;;14.80;99.90;;;;;;5059857;28;20188;-58
2022/08/09 03:58:28;;;;;;;9.00;7.20;;;14.80;99.90;;;;;;5065961;28;20940;-58
2022/08/09 04:00:59;;;;;;;8.50;7.47;;;14.80;99.90;;;;;;5060282;28;20359;-58
2022/08/09 04:03:29;;;;;;;8.90;7.93;;;14.80;99.90;;;;;;5062139;28;20911;-58
2022/08/09 04:06:19;;;;;;;7.93;7.17;;;14.70;99.90;;;;;;5074735;28;20203;-58
2022/08/09 04:08:48;;;;;;;8.40;7.60;;;14.70;99.90;;;;;;5064966;28;22213;-57
2022/08/09 04:11:20;;;;;;;9.70;8.03;;;14.70;99.90;;;;;;5061106;28;20227;-58
2022/08/09 04:13:52;;;;;;;8.93;8.03;;;14.70;99.90;;;;;;5065443;28;20194;-58
2022/08/09 04:16:40;;;;;;;9.50;7.90;;;14.60;99.90;;;;;;5060189;28;20212;-57
2022/08/09 04:19:12;;;;;;;9.70;8.47;;;14.60;99.90;;;;;;5074831;28;20217;-58
2022/08/09 04:22:01;;;;;;;8.20;7.40;;;14.60;99.90;;;;;;5061610;28;20358;-58
2022/08/09 04:24:30;;;;;;;9.50;8.07;;;14.60;99.90;;;;;;5061187;28;20193;-58
2022/08/09 04:27:00;;;;;;;8.97;8.07;;;14.60;99.90;;;;;;5064123;28;20928;-58
2022/08/09 04:29:29;;;;;;;10.10;8.50;;;14.60;99.90;;;;;;5064991;28;20260;-58
2022/08/09 04:32:00;;;;;;;9.43;8.47;;;14.60;99.90;;;;;;5050817;28;20201;-57
2022/08/09 04:34:28;;;;;;;8.83;8.03;;;14.60;99.90;;;;;;5065027;28;20284;-57
2022/08/09 04:36:59;;;;;;;10.40;8.43;;;14.60;99.90;;;;;;5056022;28;20247;-57
2022/08/09 04:39:29;;;;;;;9.10;8.23;;;14.50;99.90;;;;;;5088978;28;20612;-58
2022/08/09 04:41:58;;;;;;;10.63;9.33;;;14.50;99.90;;;;;;5054958;28;21702;-58
2022/08/09 04:44:29;;;;;;;11.80;8.83;;;14.50;99.90;;;;;;5065934;28;20236;-59
2022/08/09 04:46:58;;;;;;;11.20;8.23;;;14.50;99.90;;;;;;5065553;28;20263;-58
2022/08/09 04:49:36;;;;;;;9.07;8.17;;;14.60;99.90;;;;;;5098157;28;20227;-58
2022/08/09 04:52:25;;;;;;;10.83;8.63;;;14.60;99.90;;;;;;5056846;28;20192;-58
2022/08/09 04:55:02;;;;;;;9.60;8.43;;;14.60;99.90;;;;;;5060388;28;20207;-57
2022/08/09 04:57:39;;;;;;;10.63;8.60;;;14.60;99.90;;;;;;5063774;28;20245;-58
2022/08/09 05:00:27;;;;;;;9.07;8.23;;;14.60;99.90;;;;;;5061037;28;20192;-58
2022/08/09 05:03:02;;;;;;;10.23;8.60;;;14.70;99.90;;;;;;5088697;28;20564;-57
2022/08/09 05:05:51;;;;;;;11.03;9.70;;;14.70;99.90;;;;;;5053094;28;20294;-58
2022/08/09 05:08:35;;;;;;;10.07;9.07;;;14.80;99.90;;;;;;5053009;28;20593;-58
2022/08/09 05:11:05;;;;;;;15.43;9.40;;;14.80;99.90;;;;;;5054081;28;20205;-58
2022/08/09 05:13:35;;;;;;;10.10;9.10;;;14.80;99.90;;;;;;5064134;28;20811;-58
2022/08/09 05:16:07;;;;;;;13.83;9.57;;;14.90;99.90;;;;;;5058092;28;20841;-58
2022/08/09 05:18:37;;;;;;;9.90;8.83;;;15.00;99.90;;;;;;5050994;28;20243;-59
2022/08/09 05:21:26;;;;;;;14.00;9.80;;;15.00;99.90;;;;;;5054727;28;20196;-57
2022/08/09 05:24:05;;;;;;;12.23;9.37;;;15.10;99.90;;;;;;5060975;28;20279;-57
2022/08/09 05:26:36;;;;;;;10.63;9.50;;;15.20;99.90;;;;;;5056986;28;20351;-57
2022/08/09 05:29:18;;;;;;;9.67;8.63;;;15.30;99.90;;;;;;5082818;28;20196;-57
2022/08/09 05:31:50;;;;;;;10.50;9.40;;;15.40;99.90;;;;;;5061061;28;20215;-57
2022/08/09 05:34:26;;;;;;;10.33;9.17;;;15.60;99.90;;;;;;5055230;28;20189;-57
2022/08/09 05:37:00;;;;;;;13.13;9.27;;;15.70;99.90;;;;;;5058071;28;20388;-58
2022/08/09 05:39:32;;;;;;;9.73;8.60;;;15.80;99.90;;;;;;5055071;28;20218;-57
2022/08/09 05:42:11;;;;;;;11.10;8.10;;;16.00;99.90;;;;;;5048777;28;20234;-58
2022/08/09 05:44:49;;;;;;;10.87;8.63;;;16.10;99.90;;;;;;5087307;28;20207;-58
2022/08/09 05:47:20;;;;;;;11.57;8.90;;;16.30;99.90;;;;;;5052549;28;20223;-58
2022/08/09 05:49:50;;;;;;;9.43;8.57;;;16.40;99.90;;;;;;5050776;28;20248;-58
2022/08/09 05:52:39;;;;;;;10.50;8.47;;;16.50;99.90;;;;;;5059790;28;20206;-58
2022/08/09 05:55:10;;;;;;;12.20;8.80;;;16.70;99.90;;;;;;5051983;28;20423;-57
2022/08/09 05:57:50;;;;;;;14.23;8.20;;;16.80;99.90;;;;;;5057450;28;20203;-58
2022/08/09 06:00:25;;;;;;;11.37;8.00;;;17.00;99.90;;;;;;5072859;28;20234;-58
2022/08/09 06:02:59;;;;;;;11.40;8.13;;;17.10;99.90;;;;;;5064567;28;20768;-58
2022/08/09 06:05:30;;;;;;;9.83;7.93;;;17.20;99.90;;;;;;5059113;28;20221;-58
2022/08/09 06:08:18;;;;;;;10.13;7.90;;;17.30;99.90;;;;;;5050593;28;20198;-58
2022/08/09 06:10:53;;;;;;;9.50;8.13;;;17.40;99.90;;;;;;5059167;28;20416;-58
2022/08/09 06:13:24;;;;;;;8.63;7.20;;;17.50;99.90;;;;;;5060070;28;20211;-57
2022/08/09 06:15:55;;;;;;;8.57;7.77;;;17.70;99.90;;;;;;5059809;28;20424;-59
2022/08/09 06:18:28;;;;;;;12.80;7.70;;;17.80;99.90;;;;;;5068175;28;20744;-58
2022/08/09 06:21:00;;;;;;;9.80;7.90;;;17.90;99.90;;;;;;5051967;28;20262;-58
2022/08/09 06:23:30;;;;;;;9.20;7.33;;;18.00;99.90;;;;;;5056772;28;20289;-58
2022/08/09 06:26:20;;;;;;;13.33;7.50;;;18.20;99.90;;;;;;5056074;28;20209;-58
2022/08/09 06:28:52;;;;;;;10.57;8.20;;;18.40;99.90;;;;;;5075070;28;20180;-58
2022/08/09 06:31:32;;;;;;;11.10;7.47;;;18.60;99.90;;;;;;5060419;28;20200;-58
2022/08/09 06:34:22;;;;;;;12.27;7.37;;;18.70;99.90;;;;;;5062902;28;20593;-58
2022/08/09 06:36:57;;;;;;;12.77;7.77;;;18.70;99.90;;;;;;5064069;28;20227;-58
2022/08/09 06:39:29;;;;;;;14.10;7.50;;;18.80;99.90;;;;;;5084952;28;20228;-58
2022/08/09 06:42:19;;;;;;;9.30;7.27;;;18.90;99.90;;;;;;5066478;28;20206;-57
2022/08/09 06:44:54;;;;;;;8.83;6.83;;;19.00;99.90;;;;;;5064519;28;20204;-58
2022/08/09 06:47:25;;;;;;;7.77;6.97;;;19.30;99.90;;;;;;5063408;28;20239;-58
2022/08/09 06:50:10;;;;;;;12.23;7.13;;;19.40;99.90;;;;;;5064732;28;20218;-58
2022/08/09 06:52:46;;;;;;;11.57;7.00;;;19.50;99.90;;;;;;5061141;28;20207;-58
2022/08/09 06:55:17;;;;;;;9.43;7.03;;;19.80;99.90;;;;;;5055967;28;20192;-59
2022/08/09 06:57:50;;;;;;;7.67;6.90;;;19.80;99.90;;;;;;5056477;28;20203;-58
2022/08/09 07:00:34;;;;;;;8.00;6.17;;;19.90;99.90;;;;;;5056792;28;20216;-58
2022/08/09 07:03:24;;;;;;;7.23;6.37;;;20.00;99.90;;;;;;5063085;28;20188;-58
2022/08/09 07:05:57;;;;;;;7.93;6.13;;;20.20;99.90;;;;;;5051636;28;20259;-58
2022/08/09 07:08:33;;;;;;;10.83;6.43;;;20.30;99.90;;;;;;5061578;28;20191;-57
2022/08/09 07:11:03;;;;;;;9.97;6.57;;;20.50;99.90;;;;;;5057543;28;20702;-58
2022/08/09 07:13:34;;;;;;;8.17;6.10;;;20.70;99.90;;;;;;5054384;28;20276;-59
2022/08/09 07:16:24;;;;;;;8.10;5.90;;;20.80;99.90;;;;;;5058575;28;20694;-59
2022/08/09 07:19:14;;;;;;;9.20;5.87;;;20.80;99.90;;;;;;5057646;28;20229;-59
2022/08/09 07:21:51;;;;;;;6.60;5.80;;;21.00;99.90;;;;;;5055928;28;20219;-57
2022/08/09 07:24:30;;;;;;;12.73;5.40;;;21.20;99.90;;;;;;5050039;28;20199;-58
2022/08/09 07:27:10;;;;;;;5.50;4.90;;;21.50;99.90;;;;;;5087484;28;20555;-58
2022/08/09 07:29:59;;;;;;;10.20;5.70;;;21.60;99.90;;;;;;5057495;28;20656;-58
2022/08/09 07:32:30;;;;;;;7.53;4.93;;;21.80;99.90;;;;;;5057830;28;20207;-58
2022/08/09 07:35:02;;;;;;;9.57;5.00;;;21.90;99.90;;;;;;5057324;28;20789;-58
2022/08/09 07:37:39;;;;;;;8.50;4.43;;;22.00;99.90;;;;;;5055744;28;20676;-57
2022/08/09 07:40:14;;;;;;;5.10;4.23;;;22.20;99.90;;;;;;5058974;28;20286;-58
2022/08/09 07:42:52;;;;;;;6.07;3.97;;;22.30;99.90;;;;;;5068867;28;20193;-57
2022/08/09 07:45:25;;;;;;;5.03;3.60;;;22.30;99.90;;;;;;5058342;28;20194;-58
2022/08/09 07:48:17;;;;;;;8.53;4.20;;;22.50;99.90;;;;;;5077432;27;20991;-57
2022/08/09 07:50:58;;;;;;;4.90;3.50;;;22.80;99.90;;;;;;5055870;28;20233;-58
2022/08/09 07:53:50;;;;;;;5.00;3.83;;;23.00;99.90;;;;;;5053163;28;20278;-58
2022/08/09 07:56:34;;;;;;;4.33;3.83;;;23.10;99.90;;;;;;5045915;28;20190;-59
2022/08/09 07:59:06;;;;;;;4.20;3.80;;;23.30;99.90;;;;;;5051274;28;20280;-59
2022/08/09 08:01:54;;;;;;;4.77;3.30;;;23.50;99.90;;;;;;5047634;28;20410;-58
2022/08/09 08:04:24;;;;;;;7.57;2.97;;;23.60;99.90;;;;;;5057935;28;20608;-58
2022/08/09 08:07:01;;;;;;;3.00;2.70;;;23.70;99.90;;;;;;5083808;28;20220;-57
2022/08/09 08:09:50;;;;;;;5.30;2.80;;;23.80;99.90;;;;;;5050977;28;20213;-57
2022/08/09 08:12:38;;;;;;;4.13;3.00;;;23.90;99.90;;;;;;5053028;28;20203;-56
2022/08/09 08:15:12;;;;;;;4.77;2.73;;;24.00;99.90;;;;;;5071125;28;20210;-57
2022/08/09 08:17:44;;;;;;;3.00;2.60;;;24.20;99.90;;;;;;5058497;28;20271;-57
2022/08/09 08:20:25;;;;;;;2.43;2.33;;;24.30;99.90;;;;;;5065255;28;20227;-57
2022/08/09 08:22:59;;;;;;;2.80;2.00;;;24.50;99.90;;;;;;5054339;28;20266;-56
2022/08/09 08:25:44;;;;;;;2.40;2.23;;;24.60;99.90;;;;;;5049812;28;20632;-56
2022/08/09 08:28:17;;;;;;;8.95;2.60;;;24.70;99.90;;;;;;5054795;28;20303;-59
2022/08/09 08:31:00;;;;;;;3.83;2.10;;;24.70;99.90;;;;;;5057793;28;20200;-57
2022/08/09 08:33:41;;;;;;;4.43;2.38;;;24.90;99.90;;;;;;5059891;28;20195;-56
2022/08/09 08:36:24;;;;;;;2.17;2.03;;;25.20;99.90;;;;;;5052340;28;20185;-56
2022/08/09 08:38:57;;;;;;;1.77;1.67;;;25.40;99.90;;;;;;5053100;28;20193;-57
2022/08/09 08:41:26;;;;;;;2.95;1.95;;;25.50;99.90;;;;;;5056425;28;20198;-57
2022/08/09 08:44:17;;;;;;;2.13;1.80;;;25.70;99.90;;;;;;5053174;28;20560;-57
2022/08/09 08:46:57;;;;;;;5.95;2.47;;;25.80;99.90;;;;;;5058058;28;20312;-57
2022/08/09 08:49:33;;;;;;;1.70;1.60;;;26.10;99.90;;;;;;5060523;28;20201;-57
2022/08/09 08:52:19;;;;;;;7.43;2.05;;;26.20;99.90;;;;;;5057902;28;20197;-57
2022/08/09 08:55:09;;;;;;;4.03;2.10;;;26.30;99.90;;;;;;5056192;28;20666;-57
2022/08/09 08:57:41;;;;;;;3.30;2.08;;;26.30;99.90;;;;;;5037168;28;20196;-57
2022/08/09 09:00:10;;;;;;;1.80;1.70;;;26.40;99.90;;;;;;5044823;28;20198;-56
2022/08/09 09:02:50;;;;;;;1.55;1.42;;;26.40;99.90;;;;;;5047088;28;20196;-57
2022/08/09 09:05:24;;;;;;;3.15;1.65;;;26.70;99.90;;;;;;5046622;28;20206;-58
2022/08/09 09:08:15;;;;;;;1.45;1.45;;;27.30;99.90;;;;;;5058117;28;20223;-57
2022/08/09 09:11:00;;;;;;;1.65;1.55;;;27.60;99.90;;;;;;5033942;28;20205;-57
2022/08/09 09:13:31;;;;;;;2.10;1.73;;;27.40;99.90;;;;;;5045945;28;20207;-57
2022/08/09 09:16:16;;;;;;;1.40;1.30;;;26.90;99.90;;;;;;5038471;28;20195;-57
2022/08/09 09:18:57;;;;;;;3.53;1.65;;;27.00;99.90;;;;;;5039300;28;20188;-57
2022/08/09 09:21:59;;;;;;;5.80;1.55;;;27.30;99.90;;;;;;5046279;28;20185;-57
2022/08/09 09:24:34;;;;;;;3.53;1.90;;;27.40;99.90;;;;;;5044290;28;20294;-57
2022/08/09 09:27:07;;;;;;;4.78;1.80;;;27.60;99.90;;;;;;5047500;28;20699;-57
2022/08/09 09:29:37;;;;;;;2.30;1.80;;;27.70;99.90;;;;;;5046563;28;20732;-57
2022/08/09 09:32:28;;;;;;;4.43;1.80;;;27.70;99.90;;;;;;5048195;28;20593;-57
2022/08/09 09:35:07;;;;;;;2.78;1.40;;;27.80;99.90;;;;;;5036347;28;20224;-57
2022/08/09 09:37:37;;;;;;;4.00;1.50;;;28.20;99.90;;;;;;5039475;28;20648;-58
2022/08/09 09:40:11;;;;;;;1.98;1.85;;;28.50;99.90;;;;;;5042182;28;20287;-57
2022/08/09 09:42:40;;;;;;;2.78;1.60;;;28.90;99.90;;;;;;5040092;28;20598;-57
2022/08/09 09:45:14;;;;;;;3.35;1.60;;;28.70;99.90;;;;;;5037861;28;20204;-57
2022/08/09 09:47:56;;;;;;;2.72;1.52;;;29.00;99.90;;;;;;5041482;28;20228;-57
2022/08/09 09:50:41;;;;;;;1.95;1.50;;;29.00;99.90;;;;;;5035092;28;20193;-58
2022/08/09 09:53:20;;;;;;;2.35;1.70;;;29.20;99.90;;;;;;5038641;28;20224;-57
2022/08/09 09:56:10;;;;;;;4.18;1.67;;;29.60;99.90;;;;;;5045333;28;20604;-58
2022/08/09 09:58:59;;;;;;;2.38;1.10;;;29.60;99.90;;;;;;5055510;28;20208;-58
2022/08/09 10:01:28;;;;;;;4.60;1.52;;;29.60;99.90;;;;;;5045867;28;20215;-58
2022/08/09 10:04:15;;;;;;;4.05;1.25;;;29.90;99.90;;;;;;5044131;28;20199;-58
2022/08/09 10:06:58;;;;;;;1.92;1.50;;;30.40;99.90;;;;;;5070260;28;20282;-58
2022/08/09 10:09:48;;;;;;;1.58;1.30;;;30.50;99.90;;;;;;5045921;28;21258;-57
2022/08/09 10:12:29;;;;;;;1.50;1.40;;;30.30;99.90;;;;;;5044081;28;20250;-57
2022/08/09 10:15:09;;;;;;;1.80;1.10;;;30.40;99.90;;;;;;5041954;28;20215;-58
2022/08/09 10:18:10;;;;;;;3.38;1.40;;;30.70;99.90;;;;;;5031219;28;20198;-59
2022/08/09 10:20:39;;;;;;;1.50;1.50;;;31.40;99.90;;;;;;5065882;28;20649;-58
2022/08/09 10:23:17;;;;;;;4.47;1.33;;;31.50;99.90;;;;;;5039081;28;20213;-58
2022/08/09 10:25:49;;;;;;;1.42;1.33;;;31.50;99.90;;;;;;5040790;28;20616;-58
2022/08/09 10:28:41;;;;;;;4.30;1.60;;;31.70;99.90;;;;;;5041055;28;20229;-59
2022/08/09 10:31:16;;;;;;;2.90;1.50;;;31.80;99.90;;;;;;5042627;28;20235;-59
2022/08/09 10:34:05;;;;;;;2.53;1.40;;;31.50;99.90;;;;;;5044707;28;20300;-59
2022/08/09 10:36:56;;;;;;;3.22;1.30;;;31.50;99.90;;;;;;5037164;28;20215;-59
2022/08/09 10:39:26;;;;;;;1.70;1.20;;;31.60;99.70;;;;;;5043340;28;20230;-58
2022/08/09 10:41:55;;;;;;;4.15;1.52;;;31.70;99.60;;;;;;5073870;28;20184;-58
2022/08/09 10:44:29;;;;;;;3.38;1.60;;;31.20;98.60;;;;;;5041323;28;20227;-59
2022/08/09 10:47:26;;;;;;;4.28;1.45;;;30.90;99.40;;;;;;5041289;28;20230;-59
2022/08/09 10:50:24;;;;;;;3.25;1.50;;;31.30;99.20;;;;;;5039799;28;20707;-59
2022/08/09 10:53:05;;;;;;;2.35;1.52;;;31.60;99.90;;;;;;5041880;28;20230;-60
2022/08/09 10:55:38;;;;;;;2.78;1.33;;;31.90;98.30;;;;;;5039017;28;20584;-58
2022/08/09 10:58:30;;;;;;;2.05;1.50;;;31.80;98.60;;;;;;5037178;28;20203;-58
2022/08/09 11:01:03;;;;;;;4.50;1.60;;;31.40;99.10;;;;;;5039214;28;20196;-58
2022/08/09 11:04:27;;;;;;;1.60;1.50;;;31.80;98.70;;;;;;5043190;28;20203;-59
2022/08/09 11:07:26;;;;;;;2.65;1.70;;;32.00;98.20;;;;;;5040576;28;20198;-58
2022/08/09 11:10:14;;;;;;;1.65;1.50;;;31.80;98.00;;;;;;5040590;28;20900;-58
2022/08/09 11:13:19;;;;;;;2.13;1.55;;;31.80;97.90;;;;;;5037329;28;20217;-58
2022/08/09 11:16:36;;;;;;;2.45;1.27;;;31.30;99.20;;;;;;5074620;28;20275;-60
2022/08/09 11:19:07;;;;;;;5.13;1.40;;;31.40;99.40;;;;;;5033131;28;20601;-60
2022/08/09 11:21:56;;;;;;;2.58;1.52;;;31.20;97.50;;;;;;5029109;28;20633;-60
2022/08/09 11:25:11;;;;;;;2.05;1.25;;;31.00;98.60;;;;;;5043682;28;20331;-60
2022/08/09 11:27:43;;;;;;;2.00;1.45;;;31.10;98.90;;;;;;5004376;28;20217;-60
2022/08/09 11:30:34;;;;;;;1.38;1.27;;;31.30;98.80;;;;;;5035498;28;20201;-60
2022/08/09 11:33:09;;;;;;;3.53;1.52;;;31.10;98.10;;;;;;5038096;28;20204;-60
2022/08/09 11:35:40;;;;;;;4.15;1.60;;;30.70;98.20;;;;;;5048241;28;20277;-61
2022/08/09 11:38:21;;;;;;;2.88;1.40;;;30.60;99.90;;;;;;5042736;28;20205;-60
2022/08/09 11:41:27;;;;;;;2.45;1.50;;;31.00;98.80;;;;;;5040331;28;20211;-60
2022/08/09 11:44:08;;;;;;;1.70;1.60;;;31.10;98.90;;;;;;5043001;28;20196;-60
2022/08/09 11:46:57;;;;;;;4.05;1.30;;;31.20;97.90;;;;;;5043176;28;20225;-60
2022/08/09 11:50:02;;;;;;;4.60;1.70;;;31.20;98.60;;;;;;5035658;28;20213;-60
2022/08/09 11:53:21;;;;;;;2.10;1.38;;;30.60;98.60;;;;;;5039223;28;20223;-60
2022/08/09 11:56:30;;;;;;;2.15;1.30;;;30.80;99.30;;;;;;5042042;28;20278;-60
2022/08/09 11:59:11;;;;;;;1.70;1.48;;;31.10;98.10;;;;;;5041700;28;20560;-66
2022/08/09 12:01:42;;;;;;;1.83;1.23;;;31.30;99.50;;;;;;5041020;28;20199;-59
2022/08/09 12:04:30;;;;;;;2.92;1.52;;;31.40;97.70;;;;;;5042978;28;20199;-61
2022/08/09 12:07:06;;;;;;;1.90;1.45;;;31.00;99.60;;;;;;5034969;28;20199;-59
2022/08/09 12:09:36;;;;;;;3.13;1.50;;;31.10;98.40;;;;;;5043037;28;20227;-60
2022/08/09 12:12:07;;;;;;;3.78;1.75;;;31.10;97.70;;;;;;5039688;28;20227;-61
2022/08/09 12:14:41;;;;;;;1.70;1.40;;;31.00;98.20;;;;;;5041942;28;20298;-60
2022/08/09 12:17:30;;;;;;;2.70;1.52;;;30.70;97.90;;;;;;5062853;28;20281;-60
2022/08/09 12:20:13;;;;;;;1.67;1.45;;;30.40;98.70;;;;;;5036611;28;20225;-61
2022/08/09 12:22:52;;;;;;;2.65;1.55;;;30.30;98.30;;;;;;5034700;28;20282;-60
2022/08/09 12:25:24;;;;;;;1.70;1.60;;;30.40;98.50;;;;;;5047494;28;20216;-60
2022/08/09 12:28:10;;;;;;;2.28;1.63;;;30.20;98.50;;;;;;5032688;28;20683;-60
2022/08/09 12:30:58;;;;;;;4.35;1.70;;;29.80;99.80;;;;;;5033230;28;20227;-60
2022/08/09 12:33:27;;;;;;;4.32;1.90;;;29.80;98.20;;;;;;5055063;28;20197;-60
2022/08/09 12:36:16;;;;;;;3.53;1.80;;;29.70;98.90;;;;;;5038122;28;20203;-60
2022/08/09 12:39:01;;;;;;;2.35;1.95;;;29.60;98.90;;;;;;5044288;28;20762;-60
2022/08/09 12:41:33;;;;;;;4.65;1.90;;;29.40;98.60;;;;;;5046507;28;20208;-60
2022/08/09 12:44:07;;;;;;;3.78;1.70;;;29.30;99.30;;;;;;5046223;28;20749;-60
2022/08/09 12:46:43;;;;;;;1.55;1.55;;;29.10;99.50;;;;;;5041431;28;20233;-60
2022/08/09 12:49:17;;;;;;;2.45;1.52;;;29.10;99.20;;;;;;5039774;28;20636;-60
2022/08/09 12:51:55;;;;;;;4.15;1.58;;;28.80;99.50;;;;;;5045187;28;20201;-60
2022/08/09 12:54:48;;;;;;;2.50;1.80;;;28.90;98.70;;;;;;5038979;28;20181;-60
2022/08/09 12:57:38;;;;;;;1.70;1.60;;;28.90;99.90;;;;;;5036934;28;20303;-60
2022/08/09 13:00:16;;;;;;;5.75;1.52;;;29.10;98.90;;;;;;5040958;28;20201;-60
2022/08/09 13:02:50;;;;;;;2.37;1.50;;;28.80;98.90;;;;;;5042809;28;20287;-60
2022/08/09 13:05:22;;;;;;;9.55;1.70;;;29.10;99.30;;;;;;5043600;28;20213;-60
2022/08/09 13:08:13;;;;;;;1.50;1.50;;;29.30;99.90;;;;;;5039434;28;20190;-60
2022/08/09 13:10:48;;;;;;;1.58;1.58;;;29.60;99.40;;;;;;5041813;28;20211;-60
2022/08/09 13:13:31;;;;;;;2.97;1.50;;;29.30;99.90;;;;;;5042498;28;20361;-60
2022/08/09 13:16:20;;;;;;;1.90;1.50;;;29.60;99.60;;;;;;5036329;28;20197;-61
2022/08/09 13:18:52;;;;;;;4.30;1.20;;;29.80;98.10;;;;;;5044740;28;20193;-61
2022/08/09 13:21:25;;;;;;;2.65;1.15;;;29.80;99.60;;;;;;5039385;28;20231;-61
2022/08/09 13:24:14;;;;;;;1.45;1.42;;;29.90;98.50;;;;;;5036873;28;20285;-61
2022/08/09 13:27:22;;;;;;;3.53;1.50;;;29.50;98.30;;;;;;5039373;28;20209;-60
2022/08/09 13:29:58;;;;;;;3.20;1.57;;;29.00;98.40;;;;;;5040753;28;20212;-60
2022/08/09 13:32:48;;;;;;;3.50;1.23;;;28.80;98.90;;;;;;5042716;28;20197;-60
2022/08/09 13:35:18;;;;;;;1.40;1.20;;;29.10;99.90;;;;;;5046594;28;20739;-60
2022/08/09 13:37:47;;;;;;;3.20;1.50;;;29.40;99.40;;;;;;5044138;28;20304;-60
2022/08/09 13:40:20;;;;;;;4.10;1.30;;;29.80;99.00;;;;;;5047544;28;20214;-61
2022/08/09 13:43:09;;;;;;;1.05;1.05;;;30.20;98.80;;;;;;5042548;28;20211;-60
2022/08/09 13:45:46;;;;;;;1.95;1.08;;;30.40;97.30;;;;;;5040612;28;20995;-61
2022/08/09 13:48:34;;;;;;;4.00;1.30;;;30.20;96.50;;;;;;5003659;28;20726;-63